createdAt,value
2019-04-23T00:00:13.967Z,11.40
2019-04-23T00:02:56.708Z,11.40
2019-04-23T00:05:39.405Z,11.50
2019-04-23T00:07:56.172Z,11.50
2019-04-23T00:10:25.324Z,11.50
2019-04-23T00:13:05.693Z,11.50
2019-04-23T00:15:31.581Z,11.40
2019-04-23T00:18:19.446Z,11.40
2019-04-23T00:20:44.264Z,11.40
2019-04-23T00:25:52.609Z,11.40
2019-04-23T00:28:20.477Z,11.40
2019-04-23T00:30:49.649Z,11.30
2019-04-23T00:33:19.962Z,11.30
2019-04-23T00:35:44.116Z,11.20
2019-04-23T00:38:18.257Z,11.20
2019-04-23T00:40:43.943Z,11.20
2019-04-23T00:50:52.940Z,11.10
2019-04-23T00:53:18.882Z,11.00
2019-04-23T00:55:49.144Z,10.90
2019-04-23T00:58:25.024Z,10.90
2019-04-23T01:00:52.827Z,10.90
2019-04-23T01:03:25.310Z,10.90
2019-04-23T01:05:46.654Z,10.90
2019-04-23T01:08:18.613Z,10.90
2019-04-23T01:11:02.101Z,10.90
2019-04-23T01:13:31.888Z,10.90
2019-04-23T01:16:02.712Z,10.80
2019-04-23T01:18:38.190Z,10.80
2019-04-23T01:20:53.711Z,10.80
2019-04-23T01:23:21.415Z,10.80
2019-04-23T01:26:00.314Z,10.80
2019-04-23T01:28:49.669Z,10.70
2019-04-23T01:33:50.306Z,10.70
2019-04-23T01:38:53.455Z,10.70
2019-04-23T01:41:20.499Z,10.70
2019-04-23T01:43:47.827Z,10.70
2019-04-23T01:46:23.421Z,10.70
2019-04-23T01:51:20.438Z,10.70
2019-04-23T01:56:22.953Z,10.60
2019-04-23T01:58:57.380Z,10.60
2019-04-23T02:01:21.472Z,10.60
2019-04-23T02:03:59.800Z,10.60
2019-04-23T02:06:24.942Z,10.60
2019-04-23T02:08:56.790Z,10.60
2019-04-23T02:11:16.414Z,10.60
2019-04-23T02:13:54.765Z,10.60
2019-04-23T02:16:26.139Z,10.50
2019-04-23T02:21:22.608Z,10.40
2019-04-23T02:23:53.738Z,10.30
2019-04-23T02:26:27.984Z,10.30
2019-04-23T02:29:03.674Z,10.20
2019-04-23T02:34:12.144Z,10.30
2019-04-23T02:38:58.242Z,10.30
2019-04-23T02:41:46.566Z,10.30
2019-04-23T02:44:11.577Z,10.20
2019-04-23T02:46:24.489Z,10.20
2019-04-23T02:49:04.993Z,10.20
2019-04-23T02:51:39.628Z,10.20
2019-04-23T02:54:16.019Z,10.20
2019-04-23T02:59:14.531Z,10.20
2019-04-23T03:02:00.405Z,10.20
2019-04-23T03:04:32.773Z,10.20
2019-04-23T03:06:38.993Z,10.20
2019-04-23T03:09:28.134Z,10.20
2019-04-23T03:11:41.643Z,10.20
2019-04-23T03:14:12.123Z,10.20
2019-04-23T03:39:46.030Z,9.90
2019-04-23T03:41:59.656Z,10.00
2019-04-23T03:44:29.207Z,10.00
2019-04-23T03:46:58.702Z,9.90
2019-04-23T03:49:33.305Z,9.90
2019-04-23T03:52:01.206Z,9.90
2019-04-23T03:54:39.906Z,9.90
2019-04-23T03:57:17.030Z,9.80
2019-04-23T04:02:10.561Z,9.80
2019-04-23T04:04:32.818Z,9.80
2019-04-23T04:07:28.449Z,9.80
2019-04-23T04:09:34.039Z,9.80
2019-04-23T04:12:04.337Z,9.80
2019-04-23T04:14:42.192Z,9.80
2019-04-23T04:17:09.638Z,9.80
2019-04-23T04:24:36.885Z,9.80
2019-04-23T04:27:19.402Z,9.80
2019-04-23T04:29:39.443Z,9.90
2019-04-23T04:37:35.571Z,9.80
2019-04-23T04:39:33.999Z,9.80
2019-04-23T04:42:06.073Z,9.80
2019-04-23T04:46:59.770Z,9.80
2019-04-23T04:49:48.702Z,9.80
2019-04-23T04:52:28.949Z,9.80
2019-04-23T04:54:22.722Z,9.80
2019-04-23T04:57:14.982Z,9.80
2019-04-23T04:59:41.810Z,9.80
2019-04-23T05:02:25.952Z,9.80
2019-04-23T05:04:42.322Z,9.80
2019-04-23T05:09:48.575Z,9.80
2019-04-23T05:14:45.661Z,9.90
2019-04-23T05:17:16.808Z,10.00
2019-04-23T05:19:47.314Z,10.00
2019-04-23T05:22:17.046Z,10.00
2019-04-23T05:27:12.343Z,10.10
2019-04-23T05:29:36.251Z,10.10
2019-04-23T05:32:04.221Z,10.10
2019-04-23T05:34:57.667Z,10.20
2019-04-23T05:37:06.142Z,10.20
2019-04-23T05:47:16.049Z,10.40
2019-04-23T05:49:41.460Z,10.40
2019-04-23T05:52:14.285Z,10.50
2019-04-23T05:54:46.502Z,10.50
2019-04-23T05:57:06.964Z,10.60
2019-04-23T05:59:34.379Z,10.60
2019-04-23T06:02:26.516Z,10.70
2019-04-23T06:09:41.214Z,10.90
2019-04-23T06:12:12.429Z,10.90
2019-04-23T06:19:42.539Z,11.10
2019-04-23T06:24:41.423Z,11.20
2019-04-23T06:27:15.097Z,11.20
2019-04-23T06:29:39.543Z,11.30
2019-04-23T06:32:14.384Z,11.30
2019-04-23T06:34:42.792Z,11.40
2019-04-23T06:37:18.448Z,11.50
2019-04-23T06:39:42.654Z,11.60
2019-04-23T06:42:16.532Z,11.60
2019-04-23T06:44:54.880Z,11.60
2019-04-23T06:47:20.083Z,11.70
2019-04-23T06:49:51.381Z,11.80
2019-04-23T06:54:56.531Z,11.90
2019-04-23T06:57:22.241Z,11.90
2019-04-23T06:59:49.694Z,12.00
2019-04-23T07:05:02.197Z,12.10
2019-04-23T07:09:52.385Z,12.20
2019-04-23T07:12:21.969Z,12.30
2019-04-23T07:17:18.479Z,12.40
2019-04-23T07:19:54.860Z,12.50
2019-04-23T07:22:21.663Z,12.60
2019-04-23T07:24:54.520Z,12.60
2019-04-23T07:27:34.672Z,12.70
2019-04-23T07:30:03.587Z,12.80
2019-04-23T07:32:29.098Z,12.90
2019-04-23T07:35:03.909Z,12.90
2019-04-23T07:37:22.828Z,12.90
2019-04-23T07:42:54.851Z,13.00
2019-04-23T07:45:22.239Z,13.10
2019-04-23T07:48:13.261Z,13.20
2019-04-23T07:50:46.014Z,13.20
2019-04-23T08:00:45.607Z,13.50
2019-04-23T08:05:39.582Z,13.70
2019-04-23T08:08:15.644Z,13.70
2019-04-23T08:11:10.703Z,13.70
2019-04-23T08:13:21.580Z,13.80
2019-04-23T08:15:46.502Z,13.90
2019-04-23T08:18:19.870Z,14.00
2019-04-23T08:20:49.135Z,14.10
2019-04-23T08:23:17.719Z,14.20
2019-04-23T08:26:13.611Z,14.30
2019-04-23T08:31:08.101Z,14.40
2019-04-23T08:33:42.243Z,14.50
2019-04-23T08:36:13.542Z,14.60
2019-04-23T08:38:41.343Z,14.70
2019-04-23T08:41:21.527Z,14.60
2019-04-23T08:43:47.895Z,14.70
2019-04-23T08:46:43.340Z,14.80
2019-04-23T08:49:03.335Z,14.70
2019-04-23T08:51:44.095Z,14.90
2019-04-23T08:54:03.036Z,14.90
2019-04-23T08:56:38.504Z,15.00
2019-04-23T08:59:07.402Z,15.00
2019-04-23T09:01:33.007Z,15.10
2019-04-23T09:04:00.387Z,15.30
2019-04-23T09:06:27.795Z,15.30
2019-04-23T09:09:10.438Z,15.40
2019-04-23T09:16:35.820Z,15.60
2019-04-23T09:19:08.924Z,15.60
2019-04-23T09:21:32.805Z,15.70
2019-04-23T09:24:03.456Z,15.80
2019-04-23T09:26:34.400Z,15.80
2019-04-23T09:29:04.415Z,15.90
2019-04-23T09:32:16.613Z,16.00
2019-04-23T09:34:57.135Z,16.10
2019-04-23T09:39:59.544Z,16.20
2019-04-23T09:42:38.090Z,16.30
2019-04-23T09:45:28.077Z,16.30
2019-04-23T09:47:57.228Z,16.40
2019-04-23T09:50:23.505Z,16.50
2019-04-23T09:55:32.493Z,16.60
2019-04-23T09:57:55.495Z,16.70
2019-04-23T10:02:44.814Z,16.80
2019-04-23T10:05:07.379Z,16.80
2019-04-23T10:07:36.255Z,16.90
2019-04-23T10:09:55.593Z,16.90
2019-04-23T10:12:24.352Z,17.00
2019-04-23T10:15:04.790Z,17.10
2019-04-23T10:17:24.375Z,17.30
2019-04-23T10:19:53.163Z,17.40
2019-04-23T10:22:22.949Z,17.50
2019-04-23T10:24:53.266Z,17.50
2019-04-23T10:27:23.264Z,17.50
2019-04-23T10:29:51.949Z,17.60
2019-04-23T10:32:21.722Z,17.80
2019-04-23T10:35:03.574Z,18.00
2019-04-23T10:37:31.863Z,18.10
2019-04-23T10:39:56.700Z,18.20
2019-04-23T10:42:21.913Z,18.30
2019-04-23T10:45:16.605Z,18.60
2019-04-23T10:53:29.687Z,19.00
2019-04-23T10:58:32.108Z,19.10
2019-04-23T11:08:30.751Z,20.20
2019-04-23T11:11:11.900Z,20.30
2019-04-23T11:13:53.109Z,20.00
2019-04-23T11:18:57.109Z,20.30
2019-04-23T11:23:51.771Z,20.30
2019-04-23T11:26:28.531Z,20.70
2019-04-23T11:28:45.106Z,21.20
2019-04-23T11:31:31.678Z,21.40
2019-04-23T11:36:48.193Z,21.50
2019-04-23T11:41:45.693Z,21.90
2019-04-23T11:44:56.103Z,22.30
2019-04-23T11:46:40.749Z,22.50
2019-04-23T11:53:57.599Z,22.90
2019-04-23T11:58:52.873Z,22.20
2019-04-23T12:01:41.937Z,22.40
2019-04-23T12:04:14.140Z,22.30
2019-04-23T12:07:04.739Z,21.50
2019-04-23T12:09:42.988Z,21.50
2019-04-23T12:12:17.316Z,21.80
2019-04-23T12:18:05.511Z,22.80
2019-04-23T12:22:17.854Z,23.60
2019-04-23T12:25:09.321Z,23.80
2019-04-23T12:29:47.550Z,23.90
2019-04-23T12:35:01.582Z,23.20
2019-04-23T12:40:19.265Z,22.10
2019-04-23T12:45:27.005Z,22.20
2019-04-23T12:47:59.903Z,22.10
2019-04-23T12:52:40.636Z,22.50
2019-04-23T12:57:43.689Z,23.60
2019-04-23T13:05:12.745Z,23.80
2019-04-23T13:07:43.270Z,23.40
2019-04-23T13:10:10.381Z,22.30
2019-04-23T13:12:57.621Z,22.00
2019-04-23T13:15:15.852Z,21.80
2019-04-23T13:17:55.526Z,21.50
2019-04-23T13:20:27.545Z,21.30
2019-04-23T13:22:49.474Z,21.10
2019-04-23T13:28:06.867Z,21.70
2019-04-23T13:36:01.084Z,21.40
2019-04-23T13:38:15.756Z,21.20
2019-04-23T13:43:19.541Z,20.90
2019-04-23T13:48:10.889Z,20.70
2019-04-23T13:53:31.779Z,20.30
2019-04-23T13:55:42.798Z,20.10
2019-04-23T14:00:53.870Z,19.60
2019-04-23T14:03:26.026Z,19.30
2019-04-23T14:06:01.726Z,19.00
2019-04-23T14:08:37.845Z,18.70
2019-04-23T14:10:55.686Z,18.30
2019-04-23T14:21:02.661Z,18.10
2019-04-23T14:23:39.364Z,18.20
2019-04-23T14:26:10.496Z,18.20
2019-04-23T14:30:59.284Z,18.20
2019-04-23T14:33:37.993Z,18.20
2019-04-23T14:36:00.515Z,18.20
2019-04-23T14:43:30.589Z,18.30
2019-04-23T14:46:31.113Z,18.30
2019-04-23T14:48:31.328Z,18.20
2019-04-23T14:51:06.904Z,18.20
2019-04-23T14:58:42.668Z,18.20
2019-04-23T15:01:24.676Z,18.20
2019-04-23T15:03:40.359Z,18.00
2019-04-23T15:06:18.144Z,17.90
2019-04-23T15:09:00.380Z,17.80
2019-04-23T15:11:20.985Z,17.70
2019-04-23T15:13:39.143Z,17.60
2019-04-23T15:18:53.034Z,17.50
2019-04-23T15:23:51.929Z,17.40
2019-04-23T15:27:02.694Z,17.40
2019-04-23T15:28:17.912Z,17.30
2019-04-23T15:31:23.444Z,17.10
2019-04-23T15:33:55.290Z,17.10
2019-04-23T15:41:20.648Z,17.10
2019-04-23T15:43:55.248Z,17.00
2019-04-23T15:46:21.531Z,17.00
2019-04-23T15:48:52.864Z,16.90
2019-04-23T15:51:20.670Z,17.00
2019-04-23T15:53:46.517Z,16.90
2019-04-23T15:56:18.694Z,16.90
2019-04-23T15:58:53.706Z,16.90
2019-04-23T16:03:22.174Z,16.80
2019-04-23T16:05:51.205Z,16.70
2019-04-23T16:09:01.669Z,16.70
2019-04-23T16:14:08.242Z,16.70
2019-04-23T16:16:27.129Z,16.60
2019-04-23T16:19:13.764Z,16.60
2019-04-23T16:21:47.319Z,16.60
2019-04-23T16:24:13.418Z,16.40
2019-04-23T16:26:50.371Z,16.30
2019-04-23T16:29:26.048Z,16.20
2019-04-23T16:31:39.987Z,16.10
2019-04-23T16:34:19.183Z,15.90
2019-04-23T16:36:47.401Z,15.80
2019-04-23T16:41:54.807Z,15.50
2019-04-23T16:44:20.306Z,15.50
2019-04-23T16:46:50.205Z,15.40
2019-04-23T16:49:17.804Z,15.30
2019-04-23T16:52:01.456Z,15.20
2019-04-23T16:54:19.585Z,15.10
2019-04-23T16:57:17.918Z,15.10
2019-04-23T16:59:18.478Z,15.00
2019-04-23T17:01:52.547Z,15.00
2019-04-23T17:04:24.262Z,15.00
2019-04-23T17:09:18.586Z,14.90
2019-04-23T17:16:44.331Z,15.00
2019-04-23T17:19:22.424Z,14.90
2019-04-23T17:21:53.359Z,14.90
2019-04-23T17:27:00.874Z,14.90
2019-04-23T17:29:21.511Z,14.90
2019-04-23T17:31:45.334Z,14.90
2019-04-23T17:34:30.453Z,15.00
2019-04-23T17:40:01.851Z,15.00
2019-04-23T17:42:24.396Z,15.00
2019-04-23T17:45:22.856Z,15.00
2019-04-23T17:50:05.745Z,15.10
2019-04-23T17:52:35.012Z,15.20
2019-04-23T17:55:09.286Z,15.30
2019-04-23T17:57:31.982Z,15.30
2019-04-23T18:05:06.141Z,15.50
2019-04-23T18:07:43.686Z,15.50
2019-04-23T18:10:17.565Z,15.60
2019-04-23T18:12:43.603Z,15.60
2019-04-23T18:15:06.553Z,15.60
2019-04-23T18:17:37.793Z,15.60
2019-04-23T18:20:12.431Z,15.70
2019-04-23T18:30:26.302Z,15.70
2019-04-23T18:35:35.680Z,15.70
2019-04-23T18:38:14.778Z,15.70
2019-04-23T18:40:58.222Z,15.70
2019-04-23T18:43:11.980Z,15.70
2019-04-23T18:45:45.294Z,15.70
2019-04-23T18:51:03.557Z,15.70
2019-04-23T18:53:39.500Z,15.70
2019-04-23T18:58:44.714Z,15.80
2019-04-23T19:01:05.330Z,15.80
2019-04-23T19:03:48.403Z,15.80
2019-04-23T19:06:29.634Z,15.80
2019-04-23T19:09:16.382Z,15.70
2019-04-23T19:12:08.735Z,15.80
2019-04-23T19:14:47.524Z,15.80
2019-04-23T19:17:38.665Z,15.70
2019-04-23T19:19:33.452Z,15.80
2019-04-23T19:24:34.567Z,15.70
2019-04-23T19:29:44.013Z,15.70
2019-04-23T19:34:39.012Z,15.90
2019-04-23T19:42:20.028Z,16.00
2019-04-23T19:47:09.571Z,16.00
2019-04-23T19:49:38.919Z,16.10
2019-04-23T19:52:03.195Z,16.10
2019-04-23T20:04:43.998Z,16.10
2019-04-23T20:09:50.404Z,16.00
2019-04-23T20:12:06.361Z,16.00
2019-04-23T20:19:44.163Z,15.90
2019-04-23T20:22:16.351Z,15.90
2019-04-23T20:27:28.770Z,15.90
2019-04-23T20:37:57.790Z,15.90
2019-04-23T20:44:58.973Z,15.90
2019-04-23T20:47:32.220Z,15.90
2019-04-23T20:50:10.165Z,15.90
2019-04-23T20:52:26.271Z,15.90
2019-04-23T20:55:01.139Z,15.80
2019-04-23T21:00:12.361Z,15.80
2019-04-23T21:05:24.120Z,15.80
2019-04-23T21:10:27.373Z,15.80
2019-04-23T21:15:27.997Z,15.70
2019-04-23T21:18:13.657Z,15.70
2019-04-23T21:20:30.106Z,15.70
2019-04-23T21:22:58.977Z,15.60
2019-04-23T21:25:28.369Z,15.60
2019-04-23T21:33:16.137Z,15.50
2019-04-23T21:38:49.026Z,15.40
2019-04-23T21:43:47.575Z,15.40
2019-04-23T21:46:15.870Z,15.30
2019-04-23T21:48:57.813Z,15.30
2019-04-23T21:51:09.492Z,15.30
2019-04-23T21:53:42.645Z,15.30
2019-04-23T21:56:08.624Z,15.30
2019-04-23T21:58:47.356Z,15.20
2019-04-23T22:01:27.873Z,15.20
2019-04-23T22:04:10.202Z,15.20
2019-04-23T22:06:28.575Z,15.20
2019-04-23T22:08:59.400Z,15.10
2019-04-23T22:11:42.626Z,15.20
2019-04-23T22:16:23.405Z,15.10
2019-04-23T22:19:04.250Z,15.00
2019-04-23T22:26:32.241Z,15.00
2019-04-23T22:29:05.658Z,14.90
2019-04-23T22:31:29.185Z,14.90
2019-04-23T22:34:02.286Z,14.90
2019-04-23T22:36:23.042Z,14.90
2019-04-23T22:38:59.701Z,14.90
2019-04-23T22:41:28.223Z,14.90
2019-04-23T22:44:07.191Z,14.80
2019-04-23T22:46:35.343Z,14.80
2019-04-23T22:49:12.773Z,14.80
2019-04-23T22:51:41.518Z,14.80
2019-04-23T22:54:05.517Z,14.80
2019-04-23T22:56:25.928Z,14.80
2019-04-23T22:59:11.663Z,14.70
2019-04-23T23:01:41.211Z,14.70
2019-04-23T23:04:13.459Z,14.70
2019-04-23T23:06:54.071Z,14.70
2019-04-23T23:11:44.490Z,14.70
2019-04-23T23:14:12.133Z,14.60
2019-04-23T23:19:14.781Z,14.60
2019-04-23T23:21:59.427Z,14.50
2019-04-23T23:24:06.187Z,14.50
2019-04-23T23:26:43.350Z,14.50
2019-04-23T23:29:06.254Z,14.40
2019-04-23T23:31:50.152Z,14.50
2019-04-23T23:34:06.838Z,14.40
2019-04-23T23:36:47.639Z,14.40
2019-04-23T23:39:16.230Z,14.50
2019-04-23T23:41:50.143Z,14.40
2019-04-23T23:44:27.909Z,14.40
2019-04-23T23:46:48.748Z,14.40
2019-04-23T23:49:13.601Z,14.40
2019-04-23T23:51:46.581Z,14.40
2019-04-23T23:54:13.865Z,14.40
2019-04-23T23:56:50.077Z,14.30
